Rosier, Georgia
Current Conditions -  °F | °C
As of 9:15 AM on Sunday 21 Dec 2014 (Local Time) from KOKZ Reporting Station
Haze Haze  
Wind Chill: 45°   Ceiling: 5000
Heat Index: 47°   Visibility: 5mi
Dew Point: 45°   Wind: 5mph
Humidity: 91%   Direction: 80°E
Pressure: 30.23"   Gusts: NA
Location:  33.028°N, 82.379°W
Report Text: KOKZ 211415Z AUTO 08004KT 5SM BR SCT008 OVC050 09/07 A3023 RMK AO2 T00850071
Loading
Personal Weather Stations






























Interactive Weather Map New forecast layout! Learn more

10-Day Weather Forecast

Advertisements
Track Severe Weather on mobile